Avon, ME

10:22 AM EST on January 27, 2015 (GMT -0500)
Berlin Municipal | Change Station
CLOSE
Current Station
Airport
Location: Berlin,
Elevation: 1158 ft
Nearby Weather Stations
Active Advisory: Winter Storm Warning Active Notice: Public Information Statement

Elev 1158 ft 44.58 °N, 71.18 °W | Updated 18 minutes ago

Snow
Snow
10 °F
Feels Like -8 °F
N
18
Wind Variable Wind from North
Gusts 23 mph

Today
High -- | Low -- °F
--% Chance of Precip.
Yesterday
High -- | Low -- °F
Precip. -- in
7:06 AM 4:42 PM
First Quarter, 55% visible
Pressure 29.77 in
Visibility 0.2 miles
Clouds
Windchill -8 °F
Dew Point 2 °F
Humidity 70%
Rainfall 0.02 in
Snow Depth Not available.
UV Not available.
Pollen .10 out of 12
Air Quality Not available.
Flu Activity Not available.
SPECI KBML 271504Z AUTO 01016G20KT 1/4SM +SN VV009 M12/M17 A2977 RMK AO2 P0001 T11221167

More Conditions Fewer Conditions

Pressure 29.77 in
Visibility 0.2 miles
Clouds
Windchill -8 °F
Dew Point 2 °F
Humidity 70%
Rainfall 0.02 in
Snow Depth Not available.
UV Not available.
Pollen .10 out of 12
Air Quality Not available.
Flu Activity Not available.
SPECI KBML 271504Z AUTO 01016G20KT 1/4SM +SN VV009 M12/M17 A2977 RMK AO2 P0001 T11221167

More Conditions Fewer Conditions

10-Day Weather Forecast

Almanac

Astronomy

Jan. 27, 2015 Rise Set
Actual Time
Civil Twilight
Nautical Twilight
Astronomical Twilight
Moon
Length of Visible Light
Length of Day
Tomorrow will be .
, % of the Moon is Illuminated

Today's Extremes

State Highs State Lows

Community

WunderPhotos

Upload Photos

1,790,686 photos uploaded!

WunderBlogs® & News

Nearby

Air Quality

  Air Quality AQ Index Pollutant
Not available.

Snow Depth

Station Depth Elevation

Earthquake Activity

City Distance Mag. Time & Date
Minimum magnitude displayed is 2.5.

Coastal Water Temperatures

Place Temperature

Nearby Weather Stations